createdAt,value
2018-07-03T00:00:25.788Z,0.90
2018-07-03T00:02:52.910Z,0.82
2018-07-03T00:05:19.966Z,0.78
2018-07-03T00:07:47.015Z,0.72
2018-07-03T00:10:14.047Z,0.93
2018-07-03T00:12:41.176Z,0.85
2018-07-03T00:15:08.543Z,0.80
2018-07-03T00:17:35.592Z,0.75
2018-07-03T00:20:02.717Z,0.78
2018-07-03T00:22:29.776Z,0.72
2018-07-03T00:24:56.814Z,0.70
2018-07-03T00:27:23.848Z,1.05
2018-07-03T00:29:57.362Z,0.80
2018-07-03T00:32:24.426Z,0.70
2018-07-03T00:34:51.476Z,0.98
2018-07-03T00:37:18.538Z,0.68
2018-07-03T00:39:45.575Z,1.02
2018-07-03T00:42:12.725Z,0.88
2018-07-03T00:44:39.763Z,1.25
2018-07-03T00:47:06.805Z,1.10
2018-07-03T00:49:33.856Z,1.10
2018-07-03T00:52:00.990Z,0.93
2018-07-03T00:54:28.035Z,0.80
2018-07-03T00:56:55.094Z,1.15
2018-07-03T00:59:22.567Z,0.90
2018-07-03T01:01:49.698Z,0.90
2018-07-03T01:04:16.754Z,0.80
2018-07-03T01:06:43.814Z,0.70
2018-07-03T01:09:10.836Z,0.95
2018-07-03T01:11:39.218Z,1.00
2018-07-03T01:14:06.257Z,0.75
2018-07-03T01:16:33.323Z,0.90
2018-07-03T01:19:00.392Z,1.00
2018-07-03T01:21:27.475Z,0.82
2018-07-03T01:23:54.518Z,1.32
2018-07-03T01:26:21.556Z,1.17
2018-07-03T01:28:48.619Z,0.88
2018-07-03T01:31:15.705Z,1.02
2018-07-03T01:33:42.744Z,0.90
2018-07-03T01:36:09.800Z,0.70
2018-07-03T01:38:36.816Z,0.80
2018-07-03T01:41:04.066Z,0.90
2018-07-03T01:43:31.107Z,1.52
2018-07-03T01:45:58.154Z,1.05
2018-07-03T01:48:25.204Z,1.20
2018-07-03T01:50:52.253Z,1.00
2018-07-03T01:53:19.308Z,0.75
2018-07-03T01:55:46.384Z,0.70
2018-07-03T01:58:13.442Z,1.40
2018-07-03T02:00:40.494Z,0.90
2018-07-03T02:03:07.529Z,1.85
2018-07-03T02:05:34.582Z,1.07
2018-07-03T02:08:02.210Z,1.00
2018-07-03T02:10:29.241Z,1.20
2018-07-03T02:12:56.363Z,1.07
2018-07-03T02:15:23.822Z,1.00
2018-07-03T02:17:50.863Z,1.00
2018-07-03T02:20:17.914Z,0.80
2018-07-03T02:22:45.145Z,0.88
2018-07-03T02:25:12.193Z,1.20
2018-07-03T02:27:39.233Z,0.72
2018-07-03T02:30:06.313Z,0.95
2018-07-03T02:32:33.370Z,0.80
2018-07-03T02:35:00.421Z,0.88
2018-07-03T02:37:27.488Z,0.85
2018-07-03T02:39:54.530Z,0.93
2018-07-03T02:42:21.662Z,1.05
2018-07-03T02:44:48.712Z,1.00
2018-07-03T02:47:15.740Z,1.10
2018-07-03T02:49:42.777Z,1.45
2018-07-03T02:52:09.838Z,1.12
2018-07-03T02:54:37.065Z,0.90
2018-07-03T02:57:04.120Z,1.07
2018-07-03T02:59:31.184Z,1.00
2018-07-03T03:01:58.342Z,0.80
2018-07-03T03:04:25.431Z,1.15
2018-07-03T03:06:52.695Z,1.32
2018-07-03T03:09:20.736Z,1.00
2018-07-03T03:11:47.859Z,0.90
2018-07-03T03:14:14.918Z,1.12
2018-07-03T03:16:41.962Z,1.00
2018-07-03T03:19:09.024Z,1.30
2018-07-03T03:21:36.150Z,1.05
2018-07-03T03:24:03.187Z,1.15
2018-07-03T03:26:31.208Z,0.90
2018-07-03T03:28:58.264Z,1.07
2018-07-03T03:31:25.362Z,0.90
2018-07-03T03:33:52.418Z,0.95
2018-07-03T03:36:19.467Z,0.90
2018-07-03T03:38:46.502Z,0.90
2018-07-03T03:41:13.654Z,0.90
2018-07-03T03:43:40.755Z,1.17
2018-07-03T03:46:07.817Z,1.00
2018-07-03T03:48:34.865Z,1.10
2018-07-03T03:51:02.025Z,1.32
2018-07-03T03:53:29.071Z,0.70
2018-07-03T03:55:56.134Z,0.82
2018-07-03T03:58:23.179Z,1.20
2018-07-03T04:00:50.340Z,1.10
2018-07-03T04:03:17.321Z,0.90
2018-07-03T04:05:44.363Z,0.90
2018-07-03T04:08:11.403Z,1.35
2018-07-03T04:10:38.453Z,1.37
2018-07-03T04:13:05.506Z,1.00
2018-07-03T04:15:32.614Z,0.90
2018-07-03T04:17:59.667Z,0.80
2018-07-03T04:20:26.766Z,1.32
2018-07-03T04:22:53.920Z,1.42
2018-07-03T04:25:21.015Z,1.10
2018-07-03T04:27:48.044Z,1.15
2018-07-03T04:30:15.090Z,1.00
2018-07-03T04:32:42.197Z,1.95
2018-07-03T04:35:09.236Z,1.00
2018-07-03T04:37:36.356Z,1.05
2018-07-03T04:40:03.385Z,1.27
2018-07-03T04:42:30.488Z,1.32
2018-07-03T04:44:57.541Z,1.32
2018-07-03T04:47:24.584Z,1.10
2018-07-03T04:49:51.627Z,2.75
2018-07-03T04:52:18.764Z,1.07
2018-07-03T04:54:45.802Z,1.30
2018-07-03T04:57:12.858Z,1.20
2018-07-03T04:59:39.907Z,0.95
2018-07-03T05:02:06.955Z,1.00
2018-07-03T05:04:34.037Z,1.17
2018-07-03T05:07:01.146Z,1.12
2018-07-03T05:09:34.792Z,0.90
2018-07-03T05:12:01.907Z,1.00
2018-07-03T05:14:29.026Z,1.50
2018-07-03T05:16:57.522Z,1.00
2018-07-03T05:19:25.021Z,1.12
2018-07-03T05:21:52.126Z,1.00
2018-07-03T05:24:19.208Z,0.90
2018-07-03T05:26:46.249Z,1.10
2018-07-03T05:29:13.310Z,1.30
2018-07-03T05:31:41.102Z,1.30
2018-07-03T05:34:08.182Z,1.30
2018-07-03T05:36:35.219Z,1.25
2018-07-03T05:39:03.335Z,1.20
2018-07-03T05:41:30.456Z,1.65
2018-07-03T05:43:57.492Z,1.47
2018-07-03T05:46:25.375Z,1.40
2018-07-03T05:48:52.522Z,1.20
2018-07-03T05:51:20.202Z,1.35
2018-07-03T05:53:47.296Z,1.30
2018-07-03T05:56:14.380Z,0.88
2018-07-03T05:58:41.364Z,1.00
2018-07-03T06:02:11.496Z,1.05
2018-07-03T06:04:38.544Z,1.95
2018-07-03T06:07:05.600Z,1.67
2018-07-03T06:09:32.991Z,1.22
2018-07-03T06:11:59.735Z,1.55
2018-07-03T06:14:26.790Z,1.12
2018-07-03T06:16:55.862Z,0.90
2018-07-03T06:19:23.904Z,1.35
2018-07-03T06:21:51.318Z,1.90
2018-07-03T06:24:18.400Z,0.90
2018-07-03T06:26:45.439Z,1.95
2018-07-03T06:29:12.460Z,1.00
2018-07-03T06:31:39.560Z,1.40
2018-07-03T06:34:07.308Z,1.00
2018-07-03T06:36:34.339Z,1.12
2018-07-03T06:39:01.386Z,1.40
2018-07-03T06:41:28.510Z,1.40
2018-07-03T06:43:55.583Z,0.90
2018-07-03T06:46:22.639Z,1.20
2018-07-03T06:48:49.667Z,1.67
2018-07-03T06:51:16.751Z,1.20
2018-07-03T06:53:43.806Z,1.50
2018-07-03T06:56:10.858Z,1.55
2018-07-03T06:58:37.946Z,1.42
2018-07-03T07:01:05.040Z,1.37
2018-07-03T07:03:32.075Z,1.07
2018-07-03T07:05:59.126Z,1.35
2018-07-03T07:08:26.175Z,1.10
2018-07-03T07:10:53.212Z,1.20
2018-07-03T07:13:20.263Z,1.70
2018-07-03T07:15:47.330Z,1.20
2018-07-03T07:18:14.380Z,1.00
2018-07-03T07:20:41.425Z,1.32
2018-07-03T07:23:08.459Z,1.35
2018-07-03T07:25:35.516Z,1.25
2018-07-03T07:28:02.554Z,1.42
2018-07-03T07:30:29.621Z,1.50
2018-07-03T07:32:56.731Z,1.82
2018-07-03T07:35:23.756Z,2.12
2018-07-03T07:37:51.438Z,2.15
2018-07-03T07:40:18.487Z,2.10
2018-07-03T07:42:45.569Z,2.33
2018-07-03T07:45:12.704Z,1.75
2018-07-03T07:47:39.726Z,1.75
2018-07-03T07:50:06.837Z,1.57
2018-07-03T07:52:33.920Z,1.32
2018-07-03T07:55:01.271Z,1.20
2018-07-03T07:57:28.318Z,1.60
2018-07-03T07:59:55.366Z,1.37
2018-07-03T08:02:22.462Z,1.50
2018-07-03T08:04:49.522Z,1.42
2018-07-03T08:07:16.583Z,1.57
2018-07-03T08:09:43.627Z,1.40
2018-07-03T08:12:10.826Z,1.40
2018-07-03T08:14:37.885Z,1.77
2018-07-03T08:17:04.943Z,1.15
2018-07-03T08:19:32.428Z,1.22
2018-07-03T08:21:59.551Z,1.25
2018-07-03T08:24:26.851Z,1.95
2018-07-03T08:26:53.881Z,1.10
2018-07-03T08:29:21.003Z,0.98
2018-07-03T08:31:48.121Z,0.90
2018-07-03T08:34:15.786Z,1.27
2018-07-03T08:36:42.900Z,1.02
2018-07-03T08:39:11.484Z,1.20
2018-07-03T08:41:38.543Z,1.50
2018-07-03T08:44:05.953Z,1.12
2018-07-03T08:46:33.002Z,1.30
2018-07-03T08:49:00.041Z,1.00
2018-07-03T08:51:27.116Z,0.90
2018-07-03T08:53:54.166Z,1.10
2018-07-03T08:56:22.060Z,1.40
2018-07-03T08:58:49.177Z,1.35
2018-07-03T09:01:16.245Z,1.12
2018-07-03T09:03:43.345Z,1.10
2018-07-03T09:06:10.352Z,1.50
2018-07-03T09:08:37.407Z,1.30
2018-07-03T09:11:04.523Z,0.95
2018-07-03T09:13:31.573Z,1.35
2018-07-03T09:15:58.603Z,1.90
2018-07-03T09:18:25.642Z,1.67
2018-07-03T09:20:52.709Z,1.12
2018-07-03T09:23:20.977Z,0.90
2018-07-03T09:25:48.000Z,1.20
2018-07-03T09:28:15.046Z,1.47
2018-07-03T09:30:42.129Z,1.32
2018-07-03T09:33:09.118Z,1.25
2018-07-03T09:35:36.192Z,1.15
2018-07-03T09:38:03.226Z,1.10
2018-07-03T09:40:30.300Z,1.05
2018-07-03T09:42:57.424Z,1.52
2018-07-03T09:45:24.457Z,1.05
2018-07-03T09:47:51.496Z,0.98
2018-07-03T09:50:18.558Z,1.10
2018-07-03T09:52:45.660Z,1.95
2018-07-03T09:55:12.734Z,1.50
2018-07-03T09:57:39.828Z,1.47
2018-07-03T10:00:07.152Z,1.62
2018-07-03T10:02:34.214Z,1.20
2018-07-03T10:05:01.272Z,1.30
2018-07-03T10:07:28.306Z,2.65
2018-07-03T10:09:55.328Z,1.12
2018-07-03T10:12:22.434Z,1.35
2018-07-03T10:14:49.556Z,1.20
2018-07-03T10:17:16.605Z,1.12
2018-07-03T10:19:44.582Z,1.35
2018-07-03T10:22:11.719Z,1.20
2018-07-03T10:24:38.754Z,1.00
2018-07-03T10:27:05.809Z,1.65
2018-07-03T10:29:32.836Z,1.32
2018-07-03T10:31:59.919Z,1.20
2018-07-03T10:34:26.956Z,1.17
2018-07-03T10:36:54.586Z,1.50
2018-07-03T10:39:22.122Z,1.05
2018-07-03T10:41:49.258Z,1.30
2018-07-03T10:44:16.332Z,1.30
2018-07-03T10:46:43.370Z,1.85
2018-07-03T10:49:10.415Z,0.80
2018-07-03T10:51:37.544Z,1.52
2018-07-03T10:54:04.619Z,1.05
2018-07-03T10:56:31.623Z,1.35
2018-07-03T10:58:58.678Z,0.90
2018-07-03T11:01:25.764Z,1.25
2018-07-03T11:03:52.812Z,1.12
2018-07-03T11:06:20.382Z,1.20
2018-07-03T11:08:47.417Z,1.65
2018-07-03T11:11:14.488Z,1.40
2018-07-03T11:13:41.552Z,1.20
2018-07-03T11:16:08.600Z,1.55
2018-07-03T11:18:35.650Z,1.20
2018-07-03T11:21:02.787Z,1.02
2018-07-03T11:23:29.820Z,1.20
2018-07-03T11:25:56.883Z,0.90
2018-07-03T11:28:23.938Z,1.15
2018-07-03T11:30:51.056Z,1.00
2018-07-03T11:33:18.956Z,1.80
2018-07-03T11:35:46.018Z,0.98
2018-07-03T11:38:13.104Z,0.80
2018-07-03T11:40:40.184Z,0.95
2018-07-03T11:43:07.407Z,1.00
2018-07-03T11:45:34.435Z,1.47
2018-07-03T11:48:01.498Z,1.07
2018-07-03T11:50:28.568Z,0.98
2018-07-03T11:52:55.979Z,1.02
2018-07-03T11:55:23.046Z,1.02
2018-07-03T11:57:50.115Z,0.72
2018-07-03T12:00:17.652Z,1.42
2018-07-03T12:02:44.708Z,1.12
2018-07-03T12:05:11.762Z,1.10
2018-07-03T12:07:38.811Z,1.02
2018-07-03T12:10:05.840Z,1.05
2018-07-03T12:12:33.002Z,1.10
2018-07-03T12:15:00.100Z,1.60
2018-07-03T12:17:27.128Z,1.10
2018-07-03T12:19:54.167Z,1.10
2018-07-03T12:22:21.270Z,1.00
2018-07-03T12:24:48.327Z,0.90
2018-07-03T12:27:15.395Z,1.10
2018-07-03T12:29:42.560Z,0.95
2018-07-03T12:32:09.699Z,0.88
2018-07-03T12:34:36.805Z,1.57
2018-07-03T12:37:03.870Z,1.10
2018-07-03T12:39:30.939Z,1.10
2018-07-03T12:41:58.733Z,1.20
2018-07-03T12:44:25.903Z,1.52
2018-07-03T12:46:52.986Z,1.05
2018-07-03T12:49:20.099Z,1.05
2018-07-03T12:51:47.172Z,1.32
2018-07-03T12:54:14.278Z,1.10
2018-07-03T12:56:41.326Z,1.20
2018-07-03T12:59:08.395Z,0.90
2018-07-03T13:01:35.554Z,1.55
2018-07-03T13:04:03.312Z,1.55
2018-07-03T13:06:30.524Z,1.75
2018-07-03T13:08:57.593Z,1.70
2018-07-03T13:11:24.676Z,1.30
2018-07-03T13:13:51.719Z,1.45
2018-07-03T13:16:18.756Z,0.95
2018-07-03T13:18:45.859Z,1.80
2018-07-03T13:21:12.945Z,1.55
2018-07-03T13:23:39.968Z,1.20
2018-07-03T13:26:07.022Z,2.05
2018-07-03T13:28:34.064Z,0.80
2018-07-03T13:31:01.146Z,1.65
2018-07-03T13:33:28.193Z,1.37
2018-07-03T13:35:55.274Z,1.25
2018-07-03T13:38:22.320Z,1.57
2018-07-03T13:40:49.411Z,1.45
2018-07-03T13:43:16.457Z,1.55
2018-07-03T13:45:43.603Z,1.95
2018-07-03T13:48:10.716Z,1.92
2018-07-03T13:50:37.682Z,1.55
2018-07-03T13:53:04.720Z,2.15
2018-07-03T13:55:32.566Z,1.27
2018-07-03T13:57:59.588Z,1.72
2018-07-03T14:00:26.727Z,2.10
2018-07-03T14:02:53.838Z,2.50
2018-07-03T14:05:22.578Z,2.12
2018-07-03T14:07:49.604Z,1.90
2018-07-03T14:10:16.640Z,1.60
2018-07-03T14:12:43.774Z,1.65
2018-07-03T14:15:10.834Z,2.40
2018-07-03T14:17:38.201Z,2.27
2018-07-03T14:20:05.242Z,1.82
2018-07-03T14:22:33.001Z,2.08
2018-07-03T14:25:00.170Z,1.80
2018-07-03T14:27:27.236Z,1.85
2018-07-03T14:29:54.303Z,2.52
2018-07-03T14:32:21.387Z,1.95
2018-07-03T14:34:48.699Z,1.45
2018-07-03T14:37:15.735Z,1.95
2018-07-03T14:39:42.786Z,2.10
2018-07-03T14:42:09.859Z,1.77
2018-07-03T14:44:36.888Z,2.12
2018-07-03T14:47:04.154Z,2.33
2018-07-03T14:49:31.263Z,2.27
2018-07-03T14:51:58.477Z,1.90
2018-07-03T14:54:25.681Z,2.33
2018-07-03T14:56:53.047Z,2.72
2018-07-03T14:59:20.916Z,1.98
2018-07-03T15:01:48.034Z,2.12
2018-07-03T15:04:15.100Z,2.12
2018-07-03T15:06:42.160Z,2.27
2018-07-03T15:09:10.759Z,1.70
2018-07-03T15:11:37.795Z,1.45
2018-07-03T15:14:04.841Z,1.95
2018-07-03T15:16:32.022Z,1.98
2018-07-03T15:19:04.658Z,2.87
2018-07-03T15:21:31.880Z,1.80
2018-07-03T15:23:58.937Z,2.05
2018-07-03T15:26:26.029Z,1.62
2018-07-03T15:28:53.091Z,1.98
2018-07-03T15:31:20.835Z,2.08
2018-07-03T15:33:47.896Z,1.50
2018-07-03T15:36:15.009Z,2.37
2018-07-03T15:38:42.032Z,2.58
2018-07-03T15:41:09.228Z,2.50
2018-07-03T15:43:36.283Z,2.08
2018-07-03T15:46:03.388Z,2.35
2018-07-03T15:48:30.463Z,1.30
2018-07-03T15:50:57.698Z,2.02
2018-07-03T15:53:24.858Z,1.90
2018-07-03T15:55:52.150Z,1.92
2018-07-03T15:58:19.505Z,2.90
2018-07-03T16:00:46.743Z,2.15
2018-07-03T16:03:20.364Z,2.45
2018-07-03T16:05:56.853Z,2.05
2018-07-03T16:08:58.664Z,2.35
2018-07-03T16:11:25.785Z,2.65
2018-07-03T16:13:53.166Z,2.90
2018-07-03T16:16:20.200Z,2.72
2018-07-03T16:18:47.243Z,1.75
2018-07-03T16:21:14.362Z,2.67
2018-07-03T16:23:41.504Z,3.10
2018-07-03T16:26:08.556Z,2.40
2018-07-03T16:28:35.592Z,2.80
2018-07-03T16:31:02.650Z,2.35
2018-07-03T16:33:29.724Z,1.92
2018-07-03T16:35:56.806Z,2.40
2018-07-03T16:38:23.862Z,2.47
2018-07-03T16:40:50.996Z,1.85
2018-07-03T16:43:18.062Z,2.05
2018-07-03T16:45:45.093Z,1.47
2018-07-03T16:48:12.211Z,2.42
2018-07-03T16:50:39.231Z,2.17
2018-07-03T16:53:06.349Z,2.33
2018-07-03T16:55:33.394Z,3.47
2018-07-03T16:58:00.434Z,3.35
2018-07-03T17:00:28.850Z,2.10
2018-07-03T17:02:56.268Z,1.87
2018-07-03T17:05:23.987Z,2.37
2018-07-03T17:07:51.030Z,2.80
2018-07-03T17:10:18.070Z,2.70
2018-07-03T17:12:45.192Z,2.37
2018-07-03T17:15:12.306Z,1.80
2018-07-03T17:17:39.722Z,2.62
2018-07-03T17:20:06.876Z,2.37
2018-07-03T17:22:33.996Z,2.20
2018-07-03T17:25:01.071Z,2.30
2018-07-03T17:27:28.108Z,1.90
2018-07-03T17:29:55.170Z,2.42
2018-07-03T17:32:22.296Z,2.50
2018-07-03T17:34:49.316Z,2.42
2018-07-03T17:37:16.445Z,2.60
2018-07-03T17:39:49.756Z,2.40
2018-07-03T17:43:22.852Z,3.02
2018-07-03T17:45:55.876Z,2.15
2018-07-03T17:48:23.027Z,2.02
2018-07-03T17:50:50.147Z,2.62
2018-07-03T17:53:17.190Z,2.80
2018-07-03T17:55:44.267Z,2.17
2018-07-03T17:58:11.796Z,3.02
2018-07-03T18:00:38.962Z,2.22
2018-07-03T18:03:06.094Z,2.83
2018-07-03T18:05:33.559Z,2.58
2018-07-03T18:08:00.592Z,2.98
2018-07-03T18:10:27.698Z,1.82
2018-07-03T18:12:54.873Z,2.37
2018-07-03T18:15:21.968Z,2.87
2018-07-03T18:17:49.324Z,2.72
2018-07-03T18:20:16.457Z,2.37
2018-07-03T18:22:44.389Z,2.33
2018-07-03T18:25:11.830Z,2.77
2018-07-03T18:27:38.888Z,1.80
2018-07-03T18:30:07.006Z,2.02
2018-07-03T18:32:34.122Z,2.47
2018-07-03T18:35:01.149Z,2.35
2018-07-03T18:37:28.195Z,2.70
2018-07-03T18:39:55.251Z,3.10
2018-07-03T18:42:22.418Z,3.50
2018-07-03T18:44:49.464Z,2.98
2018-07-03T18:47:16.658Z,3.25
2018-07-03T18:49:43.935Z,2.67
2018-07-03T18:52:11.216Z,3.02
2018-07-03T18:54:38.272Z,3.00
2018-07-03T18:57:05.582Z,2.50
2018-07-03T18:59:32.616Z,2.80
2018-07-03T19:01:59.703Z,2.52
2018-07-03T19:04:27.251Z,3.12
2018-07-03T19:06:54.376Z,2.77
2018-07-03T19:09:21.627Z,3.30
2018-07-03T19:11:48.859Z,3.05
2018-07-03T19:14:15.940Z,2.47
2018-07-03T19:16:42.995Z,2.35
2018-07-03T19:19:10.135Z,3.60
2018-07-03T19:21:37.204Z,3.20
2018-07-03T19:24:04.277Z,3.15
2018-07-03T19:26:31.353Z,2.98
2018-07-03T19:28:59.183Z,2.85
2018-07-03T19:31:26.513Z,2.37
2018-07-03T19:33:53.659Z,3.12
2018-07-03T19:36:20.876Z,3.37
2018-07-03T19:38:47.864Z,4.12
2018-07-03T19:41:15.002Z,3.30
2018-07-03T19:43:42.151Z,3.60
2018-07-03T19:46:09.275Z,3.80
2018-07-03T19:48:36.324Z,4.03
2018-07-03T19:51:03.401Z,3.67
2018-07-03T19:53:30.419Z,2.55
2018-07-03T19:55:58.390Z,2.62
2018-07-03T19:58:25.510Z,2.50
2018-07-03T20:00:53.465Z,2.37
2018-07-03T20:03:21.538Z,2.62
2018-07-03T20:05:48.628Z,3.62
2018-07-03T20:08:15.681Z,3.45
2018-07-03T20:10:42.802Z,4.10
2018-07-03T20:13:11.553Z,2.87
2018-07-03T20:15:38.940Z,2.20
2018-07-03T20:18:06.232Z,2.85
2018-07-03T20:20:33.270Z,3.02
2018-07-03T20:23:00.415Z,3.42
2018-07-03T20:25:27.456Z,2.30
2018-07-03T20:27:54.580Z,3.02
2018-07-03T20:30:21.624Z,2.85
2018-07-03T20:32:48.868Z,2.25
2018-07-03T20:35:16.124Z,2.30
2018-07-03T20:37:48.048Z,2.52
2018-07-03T20:40:15.099Z,2.45
2018-07-03T20:42:42.268Z,2.62
2018-07-03T20:45:09.311Z,3.22
2018-07-03T20:47:36.447Z,2.72
2018-07-03T20:50:03.499Z,3.98
2018-07-03T20:52:30.606Z,3.15
2018-07-03T20:54:57.734Z,2.22
2018-07-03T20:57:24.896Z,1.95
2018-07-03T20:59:51.990Z,1.92
2018-07-03T21:02:19.078Z,2.95
2018-07-03T21:04:46.357Z,2.90
2018-07-03T21:07:13.418Z,2.70
2018-07-03T21:09:40.684Z,1.55
2018-07-03T21:12:07.776Z,2.77
2018-07-03T21:14:34.847Z,2.55
2018-07-03T21:17:01.914Z,2.60
2018-07-03T21:19:28.941Z,2.30
2018-07-03T21:21:56.057Z,2.05
2018-07-03T21:24:23.332Z,2.90
2018-07-03T21:26:50.346Z,2.70
2018-07-03T21:29:17.415Z,2.95
2018-07-03T21:31:44.615Z,3.17
2018-07-03T21:34:11.678Z,2.40
2018-07-03T21:36:38.710Z,2.62
2018-07-03T21:39:06.130Z,2.15
2018-07-03T21:41:34.149Z,2.47
2018-07-03T21:44:01.191Z,2.67
2018-07-03T21:46:28.250Z,1.90
2018-07-03T21:48:55.302Z,2.22
2018-07-03T21:51:22.483Z,2.10
2018-07-03T21:53:49.516Z,3.00
2018-07-03T21:56:16.546Z,1.87
2018-07-03T21:58:43.568Z,3.40
2018-07-03T22:02:14.024Z,1.95
2018-07-03T22:04:41.273Z,2.47
2018-07-03T22:07:08.313Z,2.95
2018-07-03T22:09:35.362Z,2.47
2018-07-03T22:12:02.526Z,1.80
2018-07-03T22:14:29.565Z,2.55
2018-07-03T22:16:56.600Z,1.85
2018-07-03T22:19:23.641Z,2.45
2018-07-03T22:21:50.743Z,2.70
2018-07-03T22:24:17.730Z,2.27
2018-07-03T22:26:45.613Z,2.22
2018-07-03T22:29:12.688Z,2.37
2018-07-03T22:31:39.790Z,2.80
2018-07-03T22:34:06.809Z,2.00
2018-07-03T22:36:33.861Z,2.87
2018-07-03T22:39:00.918Z,2.20
2018-07-03T22:41:27.985Z,2.30
2018-07-03T22:43:55.036Z,2.60
2018-07-03T22:46:22.094Z,2.02
2018-07-03T22:48:49.143Z,2.87
2018-07-03T22:51:16.258Z,2.22
2018-07-03T22:53:43.279Z,2.25
2018-07-03T22:56:10.296Z,1.92
2018-07-03T22:58:37.331Z,2.58
2018-07-03T23:01:04.446Z,2.77
2018-07-03T23:03:31.824Z,2.92
2018-07-03T23:05:58.867Z,2.50
2018-07-03T23:08:25.906Z,3.05
2018-07-03T23:10:53.036Z,3.15
2018-07-03T23:13:20.080Z,2.08
2018-07-03T23:15:47.156Z,2.70
2018-07-03T23:18:14.210Z,2.08
2018-07-03T23:20:41.257Z,2.40
2018-07-03T23:23:08.291Z,2.58
2018-07-03T23:25:35.337Z,2.20
2018-07-03T23:28:02.397Z,3.85
2018-07-03T23:30:29.784Z,2.67
2018-07-03T23:32:56.844Z,2.55
2018-07-03T23:35:23.878Z,1.65
2018-07-03T23:37:50.930Z,2.50
2018-07-03T23:40:17.994Z,2.85
2018-07-03T23:42:45.313Z,1.98
2018-07-03T23:45:12.425Z,2.40
2018-07-03T23:47:45.182Z,1.85
2018-07-03T23:50:18.011Z,3.75
2018-07-03T23:52:50.898Z,1.98
2018-07-03T23:55:23.652Z,2.17
2018-07-03T23:57:56.455Z,1.80
